Time;durP1;ratioP1;P1;durP2;ratioP2;P2;SDS_P1;SDS_P2;PMS_P1;PMS_P2;Temp;Humidity;BMP_temperature;BMP_pressure;BME280_temperature;BME280_humidity;BME280_pressure;Samples;Min_cycle;Max_cycle;Signal;HPM_P1;HPM_P2
2023/07/24 00:00:46;;;;;;;7.68;2.85;;;;;;;;;;5066840;28;20045;-72
2023/07/24 00:03:14;;;;;;;5.97;2.97;;;;;;;;;;5063855;28;20059;-72
2023/07/24 00:05:41;;;;;;;8.60;3.13;;;;;;;;;;5062095;28;20088;-71
2023/07/24 00:08:10;;;;;;;10.48;3.20;;;;;;;;;;5064393;28;20044;-72
2023/07/24 00:10:37;;;;;;;7.82;3.25;;;;;;;;;;5066302;28;21223;-72
2023/07/24 00:13:04;;;;;;;8.18;2.75;;;;;;;;;;5046392;28;20048;-72
2023/07/24 00:15:32;;;;;;;12.57;3.00;;;;;;;;;;5068350;28;20070;-72
2023/07/24 00:17:59;;;;;;;9.00;3.05;;;;;;;;;;5067105;28;20048;-71
2023/07/24 00:20:27;;;;;;;4.95;3.13;;;;;;;;;;5066367;28;20044;-70
2023/07/24 00:22:54;;;;;;;9.40;3.20;;;;;;;;;;5067984;28;20399;-72
2023/07/24 00:25:23;;;;;;;10.23;3.15;;;;;;;;;;5064861;28;20048;-71
2023/07/24 00:27:50;;;;;;;11.00;3.10;;;;;;;;;;5066751;28;20444;-72
2023/07/24 00:30:17;;;;;;;11.95;3.05;;;;;;;;;;5066669;28;20047;-71
2023/07/24 00:32:44;;;;;;;10.43;3.10;;;;;;;;;;5063885;28;20446;-72
2023/07/24 00:35:12;;;;;;;7.72;2.95;;;;;;;;;;5064638;28;20130;-72
2023/07/24 00:37:39;;;;;;;15.77;3.38;;;;;;;;;;5059383;28;20048;-72
2023/07/24 00:40:07;;;;;;;21.73;3.47;;;;;;;;;;5061920;28;20051;-72
2023/07/24 00:42:36;;;;;;;8.15;2.63;;;;;;;;;;5067488;28;20048;-72
2023/07/24 00:45:03;;;;;;;8.18;3.00;;;;;;;;;;5051673;28;20061;-72
2023/07/24 00:47:30;;;;;;;10.02;3.00;;;;;;;;;;5066353;28;20053;-72
2023/07/24 00:49:58;;;;;;;9.07;2.97;;;;;;;;;;5065800;28;20040;-72
2023/07/24 00:52:25;;;;;;;6.00;2.63;;;;;;;;;;5066719;28;20045;-72
2023/07/24 00:54:53;;;;;;;11.55;2.85;;;;;;;;;;5063044;28;20063;-72
2023/07/24 00:57:20;;;;;;;11.23;2.80;;;;;;;;;;5064594;28;20067;-72
2023/07/24 00:59:48;;;;;;;6.38;2.70;;;;;;;;;;5065600;28;20036;-71
2023/07/24 01:02:16;;;;;;;7.53;3.00;;;;;;;;;;5050411;28;20056;-72
2023/07/24 01:04:43;;;;;;;5.80;3.00;;;;;;;;;;5064967;28;20059;-72
2023/07/24 01:07:10;;;;;;;8.23;2.80;;;;;;;;;;5066474;28;20048;-72
2023/07/24 01:09:37;;;;;;;11.40;3.63;;;;;;;;;;5064339;28;20488;-69
2023/07/24 01:12:08;;;;;;;8.63;2.67;;;;;;;;;;5069174;28;20045;-71
2023/07/24 01:14:38;;;;;;;8.70;2.90;;;;;;;;;;5069195;28;20051;-71
2023/07/24 01:17:08;;;;;;;8.50;2.90;;;;;;;;;;5069899;28;20059;-72
2023/07/24 01:19:38;;;;;;;7.70;2.95;;;;;;;;;;5069107;28;20049;-71
2023/07/24 01:22:11;;;;;;;9.55;2.80;;;;;;;;;;5068051;28;20714;-72
2023/07/24 01:24:38;;;;;;;;;;;;;;;;;;5054300;28;20056;-71
2023/07/24 01:27:08;;;;;;;6.45;2.60;;;;;;;;;;5069675;28;19924;-72
2023/07/24 01:29:35;;;;;;;6.45;3.03;;;;;;;;;;5066986;28;20691;-73
2023/07/24 01:32:03;;;;;;;6.63;3.05;;;;;;;;;;5066121;28;20053;-71
2023/07/24 01:34:30;;;;;;;11.65;3.05;;;;;;;;;;5054252;28;20052;-72
2023/07/24 01:36:57;;;;;;;7.35;2.90;;;;;;;;;;5066366;28;20040;-71
2023/07/24 01:39:25;;;;;;;7.65;2.67;;;;;;;;;;5067908;28;20958;-72
2023/07/24 01:41:52;;;;;;;13.65;2.97;;;;;;;;;;5068517;28;20067;-71
2023/07/24 01:44:21;;;;;;;7.45;3.20;;;;;;;;;;5069596;28;20503;-70
2023/07/24 01:46:48;;;;;;;11.73;3.58;;;;;;;;;;5068292;28;20430;-72
2023/07/24 01:49:15;;;;;;;8.10;3.78;;;;;;;;;;5069461;28;20048;-72
2023/07/24 01:51:42;;;;;;;9.60;3.40;;;;;;;;;;5064203;28;20052;-72
2023/07/24 01:54:09;;;;;;;8.48;2.92;;;;;;;;;;5065738;28;20368;-71
2023/07/24 01:56:37;;;;;;;8.93;3.22;;;;;;;;;;5066518;28;20049;-71
2023/07/24 01:59:04;;;;;;;7.72;3.15;;;;;;;;;;5068773;28;20044;-71
2023/07/24 02:01:33;;;;;;;10.68;3.58;;;;;;;;;;5061845;28;20053;-71
2023/07/24 02:04:00;;;;;;;9.13;3.20;;;;;;;;;;5067835;28;20080;-71
2023/07/24 02:06:27;;;;;;;11.85;3.50;;;;;;;;;;5053881;28;20056;-71
2023/07/24 02:08:55;;;;;;;10.43;3.45;;;;;;;;;;5069408;28;20048;-71
2023/07/24 02:11:22;;;;;;;10.43;3.80;;;;;;;;;;5053538;28;20053;-72
2023/07/24 02:13:49;;;;;;;6.32;3.20;;;;;;;;;;5069556;28;20079;-72
2023/07/24 02:16:16;;;;;;;9.13;3.10;;;;;;;;;;5069934;28;20044;-72
2023/07/24 02:18:45;;;;;;;9.10;3.40;;;;;;;;;;5065446;28;20487;-72
2023/07/24 02:21:12;;;;;;;7.10;3.17;;;;;;;;;;5065073;28;20041;-71
2023/07/24 02:23:39;;;;;;;7.68;3.28;;;;;;;;;;5068985;28;20060;-72
2023/07/24 02:26:07;;;;;;;8.00;3.30;;;;;;;;;;5058403;28;20132;-72
2023/07/24 02:28:34;;;;;;;9.27;3.33;;;;;;;;;;5068191;28;20509;-72
2023/07/24 02:31:01;;;;;;;6.22;3.03;;;;;;;;;;5069000;28;20391;-72
2023/07/24 02:33:28;;;;;;;7.40;3.22;;;;;;;;;;5066622;28;20049;-72
2023/07/24 02:35:57;;;;;;;9.88;3.55;;;;;;;;;;5068005;28;20048;-72
2023/07/24 02:38:24;;;;;;;7.85;3.22;;;;;;;;;;5065164;28;20044;-72
2023/07/24 02:40:51;;;;;;;6.60;3.17;;;;;;;;;;5067182;28;20052;-72
2023/07/24 02:43:19;;;;;;;10.98;3.50;;;;;;;;;;5069652;28;20051;-72
2023/07/24 02:45:46;;;;;;;9.25;3.58;;;;;;;;;;5064241;28;20049;-72
2023/07/24 02:48:13;;;;;;;7.60;3.42;;;;;;;;;;5067412;28;20088;-72
2023/07/24 02:50:40;;;;;;;12.70;3.55;;;;;;;;;;5067910;28;20056;-72
2023/07/24 02:53:09;;;;;;;10.30;3.53;;;;;;;;;;5068121;28;20048;-72
2023/07/24 02:55:36;;;;;;;8.90;3.30;;;;;;;;;;5063220;28;20055;-72
2023/07/24 02:58:04;;;;;;;7.93;3.80;;;;;;;;;;5067482;28;20052;-72
2023/07/24 03:00:31;;;;;;;12.60;3.40;;;;;;;;;;5067906;28;20162;-72
2023/07/24 03:02:58;;;;;;;11.50;3.65;;;;;;;;;;5066076;28;20059;-72
2023/07/24 03:05:25;;;;;;;12.07;3.97;;;;;;;;;;5068612;28;20504;-70
2023/07/24 03:07:53;;;;;;;9.13;3.45;;;;;;;;;;5062720;28;20059;-72
2023/07/24 03:10:21;;;;;;;9.85;3.75;;;;;;;;;;5064994;28;20056;-72
2023/07/24 03:12:48;;;;;;;12.25;4.10;;;;;;;;;;5067048;28;20053;-72
2023/07/24 03:15:16;;;;;;;8.45;3.42;;;;;;;;;;5066117;28;20052;-72
2023/07/24 03:17:43;;;;;;;14.32;4.00;;;;;;;;;;5065712;28;20062;-71
2023/07/24 03:20:11;;;;;;;7.40;3.60;;;;;;;;;;5067582;28;20056;-72
2023/07/24 03:22:38;;;;;;;7.28;3.63;;;;;;;;;;5066371;28;20117;-72
2023/07/24 03:25:05;;;;;;;10.93;3.97;;;;;;;;;;5067928;28;20076;-72
2023/07/24 03:27:34;;;;;;;14.63;3.63;;;;;;;;;;5060150;28;20045;-72
2023/07/24 03:30:02;;;;;;;8.13;3.70;;;;;;;;;;5062399;28;20464;-71
2023/07/24 03:32:29;;;;;;;8.55;3.58;;;;;;;;;;5065053;28;20132;-72
2023/07/24 03:34:57;;;;;;;10.95;3.53;;;;;;;;;;5065196;28;20052;-72
2023/07/24 03:37:24;;;;;;;11.45;3.65;;;;;;;;;;5067067;28;20143;-73
2023/07/24 03:39:51;;;;;;;12.35;4.00;;;;;;;;;;5068421;28;20060;-70
2023/07/24 03:42:26;;;;;;;13.30;4.07;;;;;;;;;;5063781;28;20049;-70
2023/07/24 03:44:55;;;;;;;9.70;3.60;;;;;;;;;;5067669;28;20505;-72
2023/07/24 03:47:22;;;;;;;12.23;3.25;;;;;;;;;;5051696;28;20064;-72
2023/07/24 03:49:49;;;;;;;13.32;4.30;;;;;;;;;;5067237;28;20048;-72
2023/07/24 03:52:16;;;;;;;9.40;3.60;;;;;;;;;;5063409;28;20051;-72
2023/07/24 03:54:44;;;;;;;12.05;3.55;;;;;;;;;;5066680;28;20063;-72
2023/07/24 03:57:11;;;;;;;8.70;3.03;;;;;;;;;;5063942;28;20499;-72
2023/07/24 03:59:38;;;;;;;9.48;3.35;;;;;;;;;;5065395;28;20136;-72
2023/07/24 04:02:07;;;;;;;20.17;4.25;;;;;;;;;;5067537;28;20044;-72
2023/07/24 04:04:34;;;;;;;12.07;3.30;;;;;;;;;;5066525;28;20048;-72
2023/07/24 04:07:02;;;;;;;9.13;3.20;;;;;;;;;;5053311;28;20060;-72
2023/07/24 04:09:29;;;;;;;11.93;3.90;;;;;;;;;;5067333;28;20059;-72
2023/07/24 04:11:56;;;;;;;11.65;3.40;;;;;;;;;;5060635;28;20037;-72
2023/07/24 04:14:24;;;;;;;7.15;3.05;;;;;;;;;;5067555;28;20636;-72
2023/07/24 04:16:51;;;;;;;9.32;3.40;;;;;;;;;;5067214;28;20063;-72
2023/07/24 04:19:19;;;;;;;10.10;3.30;;;;;;;;;;5059257;28;20410;-72
2023/07/24 04:21:47;;;;;;;10.30;3.20;;;;;;;;;;5067803;28;20048;-71
2023/07/24 04:24:14;;;;;;;12.88;3.60;;;;;;;;;;5066118;28;20056;-72
2023/07/24 04:26:42;;;;;;;9.65;3.28;;;;;;;;;;5066466;28;20139;-72
2023/07/24 04:29:09;;;;;;;8.65;3.13;;;;;;;;;;5066613;28;20068;-72
2023/07/24 04:31:36;;;;;;;14.35;3.78;;;;;;;;;;5066851;28;20055;-72
2023/07/24 04:34:03;;;;;;;7.97;3.00;;;;;;;;;;5056682;28;20072;-72
2023/07/24 04:36:32;;;;;;;9.15;3.22;;;;;;;;;;5064284;28;20463;-72
2023/07/24 04:38:59;;;;;;;8.18;3.45;;;;;;;;;;5049918;28;20063;-72
2023/07/24 04:41:27;;;;;;;8.80;2.92;;;;;;;;;;5066778;28;20067;-72
2023/07/24 04:43:54;;;;;;;7.97;3.35;;;;;;;;;;5065347;28;20052;-72
2023/07/24 04:46:21;;;;;;;11.43;2.88;;;;;;;;;;5071577;28;20052;-72
2023/07/24 04:48:48;;;;;;;9.80;3.47;;;;;;;;;;5070167;28;20480;-72
2023/07/24 04:51:15;;;;;;;12.85;3.03;;;;;;;;;;5071705;28;20458;-72
2023/07/24 04:53:44;;;;;;;7.47;3.00;;;;;;;;;;5063676;28;20068;-72
2023/07/24 04:56:11;;;;;;;11.73;3.45;;;;;;;;;;5071281;28;20114;-72
2023/07/24 04:58:39;;;;;;;8.35;3.05;;;;;;;;;;5070325;28;20057;-72
2023/07/24 05:01:06;;;;;;;7.15;3.00;;;;;;;;;;5065226;28;20483;-72
2023/07/24 05:03:33;;;;;;;8.02;3.05;;;;;;;;;;5068053;28;20053;-72
2023/07/24 05:06:00;;;;;;;9.15;2.85;;;;;;;;;;5070510;28;20058;-72
2023/07/24 05:08:28;;;;;;;10.27;3.38;;;;;;;;;;5064977;28;20041;-72
2023/07/24 05:10:57;;;;;;;9.98;2.78;;;;;;;;;;5061263;28;20714;-71
2023/07/24 05:13:24;;;;;;;10.05;3.22;;;;;;;;;;5054625;28;20153;-70
2023/07/24 05:15:51;;;;;;;9.82;3.30;;;;;;;;;;5053353;28;20088;-73
2023/07/24 05:18:19;;;;;;;13.65;3.15;;;;;;;;;;5049853;28;20526;-69
2023/07/24 05:20:47;;;;;;;12.82;3.20;;;;;;;;;;5069315;28;20045;-71
2023/07/24 05:23:15;;;;;;;9.00;2.92;;;;;;;;;;5067394;28;20188;-72
2023/07/24 05:25:43;;;;;;;7.82;2.80;;;;;;;;;;5069230;28;20052;-72
2023/07/24 05:28:12;;;;;;;8.93;2.78;;;;;;;;;;5070850;28;20048;-70
2023/07/24 05:30:39;;;;;;;9.40;3.17;;;;;;;;;;5069140;28;20138;-72
2023/07/24 05:33:06;;;;;;;7.03;2.72;;;;;;;;;;5069068;28;20048;-72
2023/07/24 05:35:33;;;;;;;12.85;2.97;;;;;;;;;;5069378;28;20487;-73
2023/07/24 05:38:01;;;;;;;8.23;2.78;;;;;;;;;;5068386;28;20055;-72
2023/07/24 05:40:28;;;;;;;11.95;3.22;;;;;;;;;;5065128;28;20132;-72
2023/07/24 05:42:55;;;;;;;7.57;2.90;;;;;;;;;;5068895;28;20056;-72
2023/07/24 05:45:24;;;;;;;9.30;3.63;;;;;;;;;;5069266;28;20063;-71
2023/07/24 05:47:51;;;;;;;11.73;3.20;;;;;;;;;;5064315;28;20052;-72
2023/07/24 05:50:18;;;;;;;13.75;3.10;;;;;;;;;;5045703;28;20407;-72
2023/07/24 05:52:45;;;;;;;9.27;3.15;;;;;;;;;;5050901;28;20044;-70
2023/07/24 05:55:13;;;;;;;9.23;2.95;;;;;;;;;;5063707;28;20052;-69
2023/07/24 05:57:40;;;;;;;8.65;3.25;;;;;;;;;;5051946;28;20056;-69
2023/07/24 06:00:08;;;;;;;7.32;3.38;;;;;;;;;;5068144;28;20058;-71
2023/07/24 06:02:37;;;;;;;15.60;3.72;;;;;;;;;;5069759;28;20041;-72
2023/07/24 06:05:04;;;;;;;9.07;3.00;;;;;;;;;;5068238;28;20064;-73
2023/07/24 06:07:31;;;;;;;12.32;3.17;;;;;;;;;;5070306;28;20131;-73
2023/07/24 06:09:59;;;;;;;10.18;3.63;;;;;;;;;;5062377;28;20048;-73
2023/07/24 06:12:26;;;;;;;8.73;3.00;;;;;;;;;;5065408;28;20064;-73
2023/07/24 06:14:53;;;;;;;9.45;3.30;;;;;;;;;;5056741;28;20575;-72
2023/07/24 06:17:20;;;;;;;14.15;3.30;;;;;;;;;;5063582;28;20055;-72
2023/07/24 06:19:49;;;;;;;11.38;3.53;;;;;;;;;;5068053;28;20048;-72
2023/07/24 06:22:16;;;;;;;11.50;3.25;;;;;;;;;;5073078;28;20044;-72
2023/07/24 06:24:44;;;;;;;8.25;3.55;;;;;;;;;;5067321;28;20057;-72
2023/07/24 06:27:11;;;;;;;7.90;3.33;;;;;;;;;;5065072;28;20051;-72
2023/07/24 06:29:38;;;;;;;10.57;3.60;;;;;;;;;;5068854;28;20097;-72
2023/07/24 06:32:06;;;;;;;15.98;3.33;;;;;;;;;;5063992;28;20044;-72
2023/07/24 06:34:34;;;;;;;10.25;3.35;;;;;;;;;;5070265;28;20048;-72
2023/07/24 06:37:02;;;;;;;11.38;2.95;;;;;;;;;;5068758;28;20483;-71
2023/07/24 06:39:30;;;;;;;8.07;2.92;;;;;;;;;;5068128;28;20441;-73
2023/07/24 06:41:58;;;;;;;7.65;2.83;;;;;;;;;;5055775;28;20148;-73
2023/07/24 06:44:25;;;;;;;6.07;2.70;;;;;;;;;;5063996;28;20047;-72
2023/07/24 06:46:52;;;;;;;9.52;3.45;;;;;;;;;;5065827;28;20096;-71
2023/07/24 06:49:20;;;;;;;10.65;3.33;;;;;;;;;;5067789;28;20402;-72
2023/07/24 06:51:47;;;;;;;9.82;3.40;;;;;;;;;;5065903;28;20071;-73
2023/07/24 06:54:15;;;;;;;11.13;2.90;;;;;;;;;;5066583;28;20048;-72
2023/07/24 06:56:43;;;;;;;8.98;2.95;;;;;;;;;;5066639;28;20051;-72
2023/07/24 06:59:10;;;;;;;10.45;3.25;;;;;;;;;;5064343;28;20500;-72
2023/07/24 07:01:37;;;;;;;8.60;3.13;;;;;;;;;;5062236;28;20049;-73
2023/07/24 07:04:05;;;;;;;9.95;3.00;;;;;;;;;;5067216;28;20484;-72
2023/07/24 07:06:32;;;;;;;10.30;2.80;;;;;;;;;;5068011;28;20171;-72
2023/07/24 07:08:59;;;;;;;6.95;3.03;;;;;;;;;;5067071;28;20399;-72
2023/07/24 07:11:28;;;;;;;13.98;4.18;;;;;;;;;;5067516;28;20051;-72
2023/07/24 07:13:55;;;;;;;12.32;3.65;;;;;;;;;;5063890;28;20502;-71
2023/07/24 07:16:22;;;;;;;11.23;3.22;;;;;;;;;;5066250;28;20524;-72
2023/07/24 07:18:49;;;;;;;10.10;3.22;;;;;;;;;;5048447;28;20589;-71
2023/07/24 07:21:17;;;;;;;10.95;2.88;;;;;;;;;;5066539;28;20052;-71
2023/07/24 07:23:44;;;;;;;11.00;3.15;;;;;;;;;;5068177;28;20064;-71
2023/07/24 07:26:11;;;;;;;9.43;3.65;;;;;;;;;;5062860;28;20060;-71
2023/07/24 07:28:40;;;;;;;8.18;2.90;;;;;;;;;;5061663;28;20044;-71
2023/07/24 07:31:07;;;;;;;13.05;2.95;;;;;;;;;;5067949;28;20483;-71
2023/07/24 07:33:34;;;;;;;10.70;3.17;;;;;;;;;;5064982;28;20070;-70
2023/07/24 07:36:02;;;;;;;12.38;3.35;;;;;;;;;;5067533;28;20483;-72
2023/07/24 07:38:29;;;;;;;6.57;2.90;;;;;;;;;;5066505;28;20041;-71
2023/07/24 07:40:56;;;;;;;8.00;3.00;;;;;;;;;;5068072;28;20044;-72
2023/07/24 07:43:24;;;;;;;5.85;2.70;;;;;;;;;;5064865;28;20056;-72
2023/07/24 07:45:52;;;;;;;8.93;2.97;;;;;;;;;;5044588;28;20056;-72
2023/07/24 07:48:20;;;;;;;9.48;3.00;;;;;;;;;;5066960;28;20053;-73
2023/07/24 07:50:51;;;;;;;7.57;3.03;;;;;;;;;;5067850;28;20522;-73
2023/07/24 07:53:19;;;;;;;15.23;4.10;;;;;;;;;;5056685;28;20406;-72
2023/07/24 07:55:46;;;;;;;10.10;3.58;;;;;;;;;;5051412;28;20463;-72
2023/07/24 07:58:13;;;;;;;8.18;2.92;;;;;;;;;;5068036;28;20048;-72
2023/07/24 08:00:40;;;;;;;6.80;2.88;;;;;;;;;;5067522;28;20497;-72
2023/07/24 08:03:09;;;;;;;6.93;2.70;;;;;;;;;;5067427;28;20147;-72
2023/07/24 08:05:36;;;;;;;10.13;3.40;;;;;;;;;;5068434;28;20170;-71
2023/07/24 08:08:04;;;;;;;7.57;3.53;;;;;;;;;;5051213;28;20186;-72
2023/07/24 08:10:31;;;;;;;7.82;2.30;;;;;;;;;;5065485;28;20052;-72
2023/07/24 08:12:58;;;;;;;11.05;3.20;;;;;;;;;;5066831;28;20056;-72
2023/07/24 08:15:25;;;;;;;8.45;2.47;;;;;;;;;;5068571;28;20063;-71
2023/07/24 08:17:53;;;;;;;6.38;2.58;;;;;;;;;;5067495;28;20041;-72
2023/07/24 08:20:21;;;;;;;5.00;2.70;;;;;;;;;;5071649;28;20162;-72
2023/07/24 08:22:49;;;;;;;6.43;2.67;;;;;;;;;;5072817;28;20041;-73
2023/07/24 08:25:16;;;;;;;9.52;2.70;;;;;;;;;;5071308;28;20135;-71
2023/07/24 08:27:44;;;;;;;5.35;3.03;;;;;;;;;;5071792;28;20048;-71
2023/07/24 08:30:12;;;;;;;9.60;2.80;;;;;;;;;;5069467;28;20044;-71
2023/07/24 08:32:40;;;;;;;5.88;2.63;;;;;;;;;;5072227;28;20055;-72
2023/07/24 08:35:08;;;;;;;8.80;3.08;;;;;;;;;;5070626;28;20049;-72
2023/07/24 08:37:36;;;;;;;5.55;2.63;;;;;;;;;;5064783;28;20063;-72
2023/07/24 08:40:04;;;;;;;5.82;2.70;;;;;;;;;;5071656;28;20045;-71
2023/07/24 08:42:33;;;;;;;5.60;2.92;;;;;;;;;;5070444;28;20053;-72
2023/07/24 08:45:00;;;;;;;9.73;3.63;;;;;;;;;;5066726;28;20058;-72
2023/07/24 08:47:29;;;;;;;7.80;3.90;;;;;;;;;;5073337;28;20051;-72
2023/07/24 08:49:56;;;;;;;8.77;3.20;;;;;;;;;;5071281;28;20045;-72
2023/07/24 08:52:24;;;;;;;5.30;3.17;;;;;;;;;;5072461;28;20063;-71
2023/07/24 08:54:53;;;;;;;4.20;2.88;;;;;;;;;;5070337;28;20052;-72
2023/07/24 08:57:20;;;;;;;3.00;2.33;;;;;;;;;;5070207;28;20052;-73
2023/07/24 08:59:48;;;;;;;5.18;2.70;;;;;;;;;;5052699;28;20056;-73
2023/07/24 09:02:15;;;;;;;5.68;2.80;;;;;;;;;;5072365;28;20048;-73
2023/07/24 09:04:42;;;;;;;3.70;2.78;;;;;;;;;;5055927;28;20064;-72
2023/07/24 09:07:10;;;;;;;6.28;2.97;;;;;;;;;;5072692;28;20070;-73
2023/07/24 09:09:37;;;;;;;6.07;2.90;;;;;;;;;;5070501;28;20056;-73
2023/07/24 09:12:06;;;;;;;6.82;2.78;;;;;;;;;;5071859;28;20048;-72
2023/07/24 09:14:33;;;;;;;7.88;3.13;;;;;;;;;;5070798;28;20048;-72
2023/07/24 09:17:04;;;;;;;4.22;2.65;;;;;;;;;;5071410;28;20490;-73
2023/07/24 09:19:31;;;;;;;3.55;2.15;;;;;;;;;;5071408;28;20052;-73
2023/07/24 09:22:09;;;;;;;3.13;2.30;;;;;;;;;;5068781;28;20454;-72
2023/07/24 09:24:36;;;;;;;5.68;2.40;;;;;;;;;;5065137;28;20044;-72
2023/07/24 09:27:06;;;;;;;3.55;2.33;;;;;;;;;;5067084;28;20121;-72
2023/07/24 09:29:35;;;;;;;5.43;2.80;;;;;;;;;;5071518;28;20704;-71
2023/07/24 09:32:02;;;;;;;5.15;2.65;;;;;;;;;;5069915;28;20079;-72
2023/07/24 09:34:29;;;;;;;5.10;2.55;;;;;;;;;;5071617;28;20465;-73
2023/07/24 09:36:57;;;;;;;3.85;2.42;;;;;;;;;;5070253;28;20049;-72
2023/07/24 09:39:25;;;;;;;2.70;2.00;;;;;;;;;;5069951;28;20108;-72
2023/07/24 09:41:52;;;;;;;3.97;2.65;;;;;;;;;;5069417;28;20055;-73
2023/07/24 09:44:20;;;;;;;4.38;2.53;;;;;;;;;;5052997;28;20052;-72
2023/07/24 09:46:49;;;;;;;3.30;2.50;;;;;;;;;;5067240;28;20051;-73
2023/07/24 09:49:16;;;;;;;5.43;2.47;;;;;;;;;;5067557;28;20048;-72
2023/07/24 09:51:44;;;;;;;3.65;2.22;;;;;;;;;;5064213;28;20056;-72
2023/07/24 09:54:15;;;;;;;4.80;2.20;;;;;;;;;;5071120;28;20055;-73
2023/07/24 09:56:43;;;;;;;2.55;1.90;;;;;;;;;;5069599;28;20143;-73
2023/07/24 09:59:11;;;;;;;3.70;2.38;;;;;;;;;;5070107;28;20043;-73
2023/07/24 10:01:38;;;;;;;4.03;2.60;;;;;;;;;;5069884;28;20055;-70
2023/07/24 10:04:08;;;;;;;4.20;2.80;;;;;;;;;;5069422;28;20048;-70
2023/07/24 10:06:36;;;;;;;5.93;2.75;;;;;;;;;;5068761;28;20056;-71
2023/07/24 10:09:03;;;;;;;4.85;2.33;;;;;;;;;;5070328;28;20048;-71
2023/07/24 10:11:31;;;;;;;2.70;2.10;;;;;;;;;;5070160;28;20503;-70
2023/07/24 10:13:58;;;;;;;7.20;2.35;;;;;;;;;;5069792;28;20047;-71
2023/07/24 10:16:25;;;;;;;3.38;2.13;;;;;;;;;;5070683;28;20041;-69
2023/07/24 10:18:53;;;;;;;3.25;2.20;;;;;;;;;;5069322;28;20048;-71
2023/07/24 10:21:27;;;;;;;3.17;2.08;;;;;;;;;;5069164;28;20502;-71
2023/07/24 10:23:55;;;;;;;6.43;2.40;;;;;;;;;;5068327;28;20958;-70
2023/07/24 10:26:26;;;;;;;4.28;2.30;;;;;;;;;;5069402;28;20064;-71
2023/07/24 10:28:53;;;;;;;3.42;2.20;;;;;;;;;;5068338;28;20056;-71
2023/07/24 10:31:21;;;;;;;3.53;2.15;;;;;;;;;;5069607;28;20138;-70
2023/07/24 10:33:49;;;;;;;3.17;2.08;;;;;;;;;;5068544;28;20057;-70
2023/07/24 10:36:19;;;;;;;3.67;2.28;;;;;;;;;;5068943;28;20089;-71
2023/07/24 10:38:48;;;;;;;3.67;2.38;;;;;;;;;;5058478;28;20152;-70
2023/07/24 10:41:15;;;;;;;5.65;2.40;;;;;;;;;;5069120;28;20055;-71
2023/07/24 10:43:45;;;;;;;3.25;2.30;;;;;;;;;;5066239;28;20040;-71
2023/07/24 10:46:12;;;;;;;4.18;2.10;;;;;;;;;;5064985;28;20052;-71
2023/07/24 10:48:43;;;;;;;3.70;2.00;;;;;;;;;;5068162;28;20939;-71
2023/07/24 10:51:13;;;;;;;4.78;2.03;;;;;;;;;;5069645;28;20418;-70
2023/07/24 10:53:43;;;;;;;3.00;2.03;;;;;;;;;;5066888;28;20056;-72
2023/07/24 10:56:11;;;;;;;4.90;2.10;;;;;;;;;;5068239;28;20063;-70
2023/07/24 10:58:39;;;;;;;3.88;1.90;;;;;;;;;;5067091;28;20060;-71
2023/07/24 11:01:06;;;;;;;3.25;2.00;;;;;;;;;;5051483;28;20052;-71
2023/07/24 11:03:34;;;;;;;3.30;2.20;;;;;;;;;;5068997;28;20049;-72
2023/07/24 11:06:01;;;;;;;3.17;2.20;;;;;;;;;;5068208;28;20067;-69
2023/07/24 11:08:29;;;;;;;4.75;2.28;;;;;;;;;;5069095;28;20133;-71
2023/07/24 11:10:57;;;;;;;4.78;2.00;;;;;;;;;;5049976;28;20151;-71
2023/07/24 11:13:26;;;;;;;3.05;2.00;;;;;;;;;;5069539;28;20044;-70
2023/07/24 11:15:54;;;;;;;3.78;1.80;;;;;;;;;;5067517;28;20057;-70
2023/07/24 11:18:22;;;;;;;2.80;1.80;;;;;;;;;;5069167;28;20790;-70
2023/07/24 11:20:50;;;;;;;2.72;1.65;;;;;;;;;;5070016;28;20047;-70
2023/07/24 11:23:17;;;;;;;1.92;1.38;;;;;;;;;;5070165;28;20045;-71
2023/07/24 11:25:44;;;;;;;1.80;1.20;;;;;;;;;;5067804;28;20411;-72
2023/07/24 11:28:12;;;;;;;2.90;1.30;;;;;;;;;;5068879;28;20139;-71
2023/07/24 11:30:41;;;;;;;1.70;1.20;;;;;;;;;;5068068;28;20048;-71
2023/07/24 11:33:09;;;;;;;1.70;1.00;;;;;;;;;;5068310;28;20456;-72
2023/07/24 11:35:38;;;;;;;1.80;0.95;;;;;;;;;;5068930;28;20083;-70
2023/07/24 11:38:06;;;;;;;1.20;1.05;;;;;;;;;;5067703;28;20066;-70
2023/07/24 11:40:33;;;;;;;0.93;0.88;;;;;;;;;;5067884;28;20152;-70
2023/07/24 11:43:01;;;;;;;0.95;0.70;;;;;;;;;;5067500;28;20140;-71
2023/07/24 11:45:28;;;;;;;0.85;0.77;;;;;;;;;;5065609;28;20079;-71
2023/07/24 11:47:57;;;;;;;3.08;0.90;;;;;;;;;;5068649;28;20479;-69
2023/07/24 11:50:25;;;;;;;0.82;0.50;;;;;;;;;;5066725;28;20041;-70
2023/07/24 11:52:53;;;;;;;1.40;0.70;;;;;;;;;;5068176;28;20486;-70
2023/07/24 11:55:21;;;;;;;0.95;0.70;;;;;;;;;;5049102;28;20044;-71
2023/07/24 11:57:58;;;;;;;0.90;0.70;;;;;;;;;;5068560;28;20064;-71
2023/07/24 12:00:25;;;;;;;0.50;0.50;;;;;;;;;;5066242;28;20536;-71
2023/07/24 12:02:53;;;;;;;2.25;0.65;;;;;;;;;;5068119;28;20051;-71
2023/07/24 12:05:22;;;;;;;0.73;0.60;;;;;;;;;;5068749;28;20416;-70
2023/07/24 12:07:49;;;;;;;0.80;0.50;;;;;;;;;;5067673;28;20162;-71
2023/07/24 12:10:27;;;;;;;2.08;0.82;;;;;;;;;;5068020;28;20071;-70
2023/07/24 12:12:54;;;;;;;0.77;0.60;;;;;;;;;;5067721;28;20056;-71
2023/07/24 12:15:21;;;;;;;1.55;0.80;;;;;;;;;;5067853;28;20057;-70
2023/07/24 12:17:49;;;;;;;2.83;0.80;;;;;;;;;;5067062;28;20041;-70
2023/07/24 12:20:16;;;;;;;2.70;0.73;;;;;;;;;;5068022;28;20048;-71
2023/07/24 12:22:44;;;;;;;5.13;1.00;;;;;;;;;;5063864;28;20094;-70
2023/07/24 12:25:12;;;;;;;3.13;0.80;;;;;;;;;;5052730;28;20048;-70
2023/07/24 12:27:41;;;;;;;2.03;0.80;;;;;;;;;;5068209;28;20468;-71
2023/07/24 12:30:08;;;;;;;2.10;0.88;;;;;;;;;;5051004;28;20167;-71
2023/07/24 12:32:36;;;;;;;2.13;0.90;;;;;;;;;;5066327;28;20531;-71
2023/07/24 12:35:03;;;;;;;2.10;0.77;;;;;;;;;;5067733;28;20051;-70
2023/07/24 12:37:30;;;;;;;5.50;1.05;;;;;;;;;;5050246;28;20053;-71
2023/07/24 12:39:59;;;;;;;4.35;0.90;;;;;;;;;;5065845;28;20048;-70
2023/07/24 12:42:26;;;;;;;3.88;1.00;;;;;;;;;;5068571;28;20047;-70
2023/07/24 12:44:53;;;;;;;2.63;0.90;;;;;;;;;;5063642;28;20045;-71
2023/07/24 12:47:21;;;;;;;6.07;1.10;;;;;;;;;;5053673;28;20055;-71
2023/07/24 12:49:48;;;;;;;2.67;1.02;;;;;;;;;;5067844;28;20040;-72
2023/07/24 12:52:15;;;;;;;6.38;1.50;;;;;;;;;;5069954;28;20123;-70
2023/07/24 12:54:43;;;;;;;3.08;1.00;;;;;;;;;;5067302;28;20045;-72
2023/07/24 12:57:11;;;;;;;5.65;1.10;;;;;;;;;;5067206;28;20066;-70
2023/07/24 12:59:38;;;;;;;3.45;0.98;;;;;;;;;;5066503;28;20063;-71
2023/07/24 13:02:06;;;;;;;3.40;1.02;;;;;;;;;;5065040;28;20124;-70
2023/07/24 13:04:33;;;;;;;5.78;1.17;;;;;;;;;;5067849;28;20139;-71
2023/07/24 13:07:00;;;;;;;4.40;1.30;;;;;;;;;;5070826;28;20059;-71
2023/07/24 13:09:29;;;;;;;2.50;0.82;;;;;;;;;;5071191;28;20053;-70
2023/07/24 13:11:56;;;;;;;4.68;0.80;;;;;;;;;;5071556;28;20495;-70
2023/07/24 13:14:24;;;;;;;2.92;0.90;;;;;;;;;;5071112;28;20048;-70
2023/07/24 13:16:52;;;;;;;5.82;1.27;;;;;;;;;;5071101;28;20056;-71
2023/07/24 13:19:19;;;;;;;3.72;1.00;;;;;;;;;;5070737;28;20503;-70
2023/07/24 13:21:47;;;;;;;2.30;0.60;;;;;;;;;;5070516;28;20045;-71
2023/07/24 13:24:14;;;;;;;2.20;0.90;;;;;;;;;;5069442;28;20044;-70
2023/07/24 13:26:42;;;;;;;2.83;0.80;;;;;;;;;;5070535;28;20513;-70
2023/07/24 13:29:09;;;;;;;1.70;0.68;;;;;;;;;;5071745;28;20158;-70
2023/07/24 13:31:40;;;;;;;2.83;0.90;;;;;;;;;;5069914;28;20056;-70
2023/07/24 13:34:08;;;;;;;3.00;0.90;;;;;;;;;;5070858;28;20044;-70
2023/07/24 13:36:35;;;;;;;1.65;0.70;;;;;;;;;;5069736;28;20681;-70
2023/07/24 13:39:02;;;;;;;2.45;0.80;;;;;;;;;;5071444;28;20060;-71
2023/07/24 13:41:29;;;;;;;4.82;0.93;;;;;;;;;;5069986;28;20055;-70
2023/07/24 13:43:57;;;;;;;3.78;0.90;;;;;;;;;;5067125;28;20476;-70
2023/07/24 13:46:24;;;;;;;7.70;1.10;;;;;;;;;;5069961;28;20044;-70
2023/07/24 13:48:53;;;;;;;2.72;1.00;;;;;;;;;;5068796;28;20045;-70
2023/07/24 13:51:20;;;;;;;2.67;0.90;;;;;;;;;;5068670;28;20067;-70
2023/07/24 13:53:49;;;;;;;2.20;0.85;;;;;;;;;;5068815;28;20160;-71
2023/07/24 13:56:16;;;;;;;2.47;0.80;;;;;;;;;;5055023;28;20110;-70
2023/07/24 13:58:44;;;;;;;2.65;0.90;;;;;;;;;;5070480;28;20056;-70
2023/07/24 14:01:11;;;;;;;1.55;0.70;;;;;;;;;;5055231;28;20056;-70
2023/07/24 14:03:38;;;;;;;3.90;1.02;;;;;;;;;;5068763;28;20063;-70
2023/07/24 14:06:07;;;;;;;2.72;1.00;;;;;;;;;;5069977;28;20062;-71
2023/07/24 14:08:34;;;;;;;2.83;1.60;;;;;;;;;;5071070;28;20048;-71
2023/07/24 14:11:01;;;;;;;4.88;1.35;;;;;;;;;;5053600;28;20048;-70
2023/07/24 14:13:29;;;;;;;4.53;1.00;;;;;;;;;;5070971;28;20067;-71
2023/07/24 14:15:56;;;;;;;3.88;1.02;;;;;;;;;;5068674;28;20067;-70
2023/07/24 14:18:23;;;;;;;2.33;1.00;;;;;;;;;;5069522;28;20132;-70
2023/07/24 14:20:54;;;;;;;2.88;0.90;;;;;;;;;;5072969;28;20056;-71
2023/07/24 14:23:22;;;;;;;2.47;1.02;;;;;;;;;;5072076;28;20568;-71
2023/07/24 14:25:50;;;;;;;4.03;0.82;;;;;;;;;;5067795;28;20506;-71
2023/07/24 14:28:17;;;;;;;4.28;1.10;;;;;;;;;;5069294;28;20049;-71
2023/07/24 14:30:44;;;;;;;2.83;1.02;;;;;;;;;;5070132;28;20079;-71
2023/07/24 14:33:11;;;;;;;1.90;0.60;;;;;;;;;;5051965;28;20429;-71
2023/07/24 14:35:39;;;;;;;1.83;0.70;;;;;;;;;;5070251;28;20052;-71
2023/07/24 14:38:06;;;;;;;3.28;0.90;;;;;;;;;;5068795;28;20056;-71
2023/07/24 14:40:34;;;;;;;3.28;0.88;;;;;;;;;;5055878;28;20134;-71
2023/07/24 14:43:02;;;;;;;0.85;0.60;;;;;;;;;;5067210;28;20056;-71